createdAt,value
2019-02-24T00:00:03.099Z,40.70
2019-02-24T00:02:35.422Z,40.70
2019-02-24T00:05:06.031Z,40.70
2019-02-24T00:07:36.731Z,40.70
2019-02-24T00:10:07.440Z,40.70
2019-02-24T00:12:38.144Z,40.70
2019-02-24T00:15:08.875Z,40.70
2019-02-24T00:17:39.666Z,40.70
2019-02-24T00:20:11.423Z,40.70
2019-02-24T00:22:42.336Z,40.80
2019-02-24T00:25:12.905Z,40.90
2019-02-24T00:27:43.605Z,41.00
2019-02-24T00:30:14.418Z,41.00
2019-02-24T00:32:45.137Z,41.90
2019-02-24T00:35:15.803Z,41.00
2019-02-24T00:37:47.601Z,41.10
2019-02-24T00:40:18.766Z,41.10
2019-02-24T00:42:49.466Z,41.10
2019-02-24T00:45:20.373Z,41.10
2019-02-24T00:47:50.964Z,41.10
2019-02-24T00:50:22.028Z,41.30
2019-02-24T00:52:52.861Z,41.20
2019-02-24T00:55:23.514Z,41.20
2019-02-24T00:57:54.146Z,41.20
2019-02-24T01:00:24.983Z,41.80
2019-02-24T01:02:55.616Z,41.30
2019-02-24T01:05:26.314Z,41.70
2019-02-24T01:07:57.079Z,41.70
2019-02-24T01:10:28.746Z,41.50
2019-02-24T01:12:59.447Z,41.70
2019-02-24T01:15:30.515Z,41.70
2019-02-24T01:18:01.149Z,41.70
2019-02-24T01:20:31.808Z,41.90
2019-02-24T01:23:02.341Z,42.10
2019-02-24T01:25:32.976Z,42.00
2019-02-24T01:28:04.002Z,42.50
2019-02-24T01:30:34.844Z,42.70
2019-02-24T01:33:05.523Z,42.80
2019-02-24T01:35:36.207Z,42.60
2019-02-24T01:38:06.876Z,42.90
2019-02-24T01:40:37.547Z,42.80
2019-02-24T01:43:08.272Z,42.90
2019-02-24T01:45:38.987Z,42.90
2019-02-24T01:48:10.025Z,42.90
2019-02-24T01:50:40.650Z,43.00
2019-02-24T01:53:11.235Z,43.10
2019-02-24T01:55:42.071Z,42.90
2019-02-24T01:58:12.784Z,43.00
2019-02-24T02:00:43.505Z,42.80
2019-02-24T02:03:14.171Z,42.80
2019-02-24T02:05:44.800Z,42.80
2019-02-24T02:08:15.493Z,42.90
2019-02-24T02:10:46.223Z,42.80
2019-02-24T02:13:16.805Z,42.80
2019-02-24T02:15:47.466Z,42.90
2019-02-24T02:18:18.451Z,42.90
2019-02-24T02:20:49.015Z,42.90
2019-02-24T02:23:19.743Z,43.10
2019-02-24T02:25:50.711Z,43.00
2019-02-24T02:28:21.402Z,42.80
2019-02-24T02:30:51.901Z,42.80
2019-02-24T02:33:22.590Z,43.00
2019-02-24T02:35:53.196Z,42.90
2019-02-24T02:38:23.829Z,43.10
2019-02-24T02:40:54.925Z,43.00
2019-02-24T02:43:25.501Z,43.10
2019-02-24T02:45:56.393Z,43.00
2019-02-24T02:48:27.035Z,43.00
2019-02-24T02:50:57.710Z,43.10
2019-02-24T02:53:28.475Z,43.10
2019-02-24T02:55:59.175Z,43.10
2019-02-24T02:58:29.798Z,43.00
2019-02-24T03:01:00.450Z,43.20
2019-02-24T03:03:31.431Z,43.20
2019-02-24T03:06:19.901Z,43.40
2019-02-24T03:08:53.830Z,43.60
2019-02-24T03:11:24.418Z,43.50
2019-02-24T03:13:55.231Z,43.80
2019-02-24T03:16:29.143Z,43.60
2019-02-24T03:18:59.719Z,43.40
2019-02-24T03:21:30.261Z,43.60
2019-02-24T03:24:01.243Z,43.50
2019-02-24T03:26:31.943Z,43.70
2019-02-24T03:29:04.353Z,44.00
2019-02-24T03:31:35.182Z,43.80
2019-02-24T03:34:05.772Z,43.70
2019-02-24T03:36:37.056Z,43.90
2019-02-24T03:39:07.682Z,43.90
2019-02-24T03:41:38.319Z,44.10
2019-02-24T03:44:08.924Z,44.10
2019-02-24T03:46:39.509Z,44.30
2019-02-24T03:49:10.162Z,44.20
2019-02-24T03:51:40.746Z,44.70
2019-02-24T03:54:11.309Z,44.80
2019-02-24T03:56:41.970Z,44.80
2019-02-24T03:59:15.348Z,44.80
2019-02-24T04:01:45.019Z,45.20
2019-02-24T04:04:15.851Z,44.90
2019-02-24T04:06:46.892Z,45.00
2019-02-24T04:09:17.550Z,45.00
2019-02-24T04:11:48.168Z,45.00
2019-02-24T04:14:19.071Z,45.10
2019-02-24T04:16:50.067Z,45.70
2019-02-24T04:19:20.973Z,45.20
2019-02-24T04:21:52.053Z,45.60
2019-02-24T04:24:22.843Z,45.40
2019-02-24T04:26:53.784Z,45.50
2019-02-24T04:29:25.640Z,45.30
2019-02-24T04:31:56.335Z,45.20
2019-02-24T04:34:28.109Z,45.70
2019-02-24T04:36:58.803Z,45.80
2019-02-24T04:39:29.543Z,46.00
2019-02-24T04:42:00.274Z,45.80
2019-02-24T04:44:30.957Z,45.70
2019-02-24T04:47:01.726Z,45.60
2019-02-24T04:49:32.810Z,45.60
2019-02-24T04:52:03.455Z,45.50
2019-02-24T04:54:34.129Z,45.40
2019-02-24T04:57:04.849Z,45.60
2019-02-24T04:59:35.495Z,45.80
2019-02-24T05:02:06.434Z,45.50
2019-02-24T05:04:37.035Z,45.50
2019-02-24T05:07:07.702Z,46.30
2019-02-24T05:09:38.381Z,45.50
2019-02-24T05:12:09.097Z,45.80
2019-02-24T05:14:39.779Z,45.80
2019-02-24T05:17:10.443Z,45.80
2019-02-24T05:19:41.102Z,45.80
2019-02-24T05:22:12.184Z,45.60
2019-02-24T05:24:43.090Z,45.70
2019-02-24T05:27:13.669Z,45.70
2019-02-24T05:29:46.257Z,45.70
2019-02-24T05:32:16.553Z,45.70
2019-02-24T05:34:47.281Z,46.00
2019-02-24T05:37:17.826Z,45.80
2019-02-24T05:39:48.466Z,45.80
2019-02-24T05:42:19.018Z,46.60
2019-02-24T05:44:49.671Z,46.10
2019-02-24T05:47:20.654Z,46.20
2019-02-24T05:49:51.303Z,46.00
2019-02-24T05:52:21.965Z,46.00
2019-02-24T05:54:52.714Z,46.20
2019-02-24T05:57:23.651Z,46.50
2019-02-24T05:59:55.497Z,46.20
2019-02-24T06:02:26.337Z,46.20
2019-02-24T06:04:56.979Z,46.40
2019-02-24T06:07:27.929Z,46.20
2019-02-24T06:09:58.958Z,46.40
2019-02-24T06:12:29.673Z,46.50
2019-02-24T06:15:00.396Z,46.50
2019-02-24T06:17:31.079Z,46.40
2019-02-24T06:20:01.828Z,46.30
2019-02-24T06:22:32.658Z,46.50
2019-02-24T06:25:03.418Z,46.50
2019-02-24T06:27:34.296Z,46.20
2019-02-24T06:30:05.826Z,46.40
2019-02-24T06:32:36.579Z,46.30
2019-02-24T06:35:07.485Z,46.20
2019-02-24T06:37:38.172Z,46.10
2019-02-24T06:40:08.860Z,45.90
2019-02-24T06:42:39.619Z,45.60
2019-02-24T06:45:10.310Z,45.70
2019-02-24T06:47:40.977Z,45.50
2019-02-24T06:50:11.688Z,44.70
2019-02-24T06:52:42.376Z,43.60
2019-02-24T06:55:13.092Z,42.30
2019-02-24T06:57:43.816Z,41.80
2019-02-24T07:00:14.559Z,41.30
2019-02-24T07:02:45.615Z,41.20
2019-02-24T07:05:16.182Z,41.10
2019-02-24T07:07:46.908Z,41.00
2019-02-24T07:10:17.471Z,40.40
2019-02-24T07:12:48.823Z,38.50
2019-02-24T07:15:19.891Z,36.40
2019-02-24T07:17:50.604Z,34.40
2019-02-24T07:20:21.647Z,33.90
2019-02-24T07:22:52.754Z,32.90
2019-02-24T07:25:23.359Z,31.90
2019-02-24T07:27:55.927Z,31.40
2019-02-24T07:30:26.485Z,31.20
2019-02-24T07:32:57.495Z,30.00
2019-02-24T07:35:28.058Z,29.10
2019-02-24T07:37:58.677Z,29.10
2019-02-24T07:40:29.291Z,28.70
2019-02-24T07:43:00.297Z,28.10
2019-02-24T07:45:30.857Z,28.50
2019-02-24T07:48:01.417Z,27.80
2019-02-24T07:50:32.113Z,28.30
2019-02-24T07:53:02.822Z,27.20
2019-02-24T07:55:33.591Z,27.50
2019-02-24T07:58:04.111Z,28.00
2019-02-24T08:00:43.560Z,28.40
2019-02-24T08:03:14.306Z,28.70
2019-02-24T08:05:44.801Z,28.60
2019-02-24T08:08:16.752Z,28.00
2019-02-24T08:10:47.485Z,26.90
2019-02-24T08:13:18.181Z,26.00
2019-02-24T08:15:48.736Z,25.40
2019-02-24T08:18:19.450Z,24.60
2019-02-24T08:20:50.055Z,23.60
2019-02-24T08:23:20.752Z,24.00
2019-02-24T08:25:51.311Z,23.60
2019-02-24T08:28:22.029Z,23.50
2019-02-24T08:30:53.612Z,22.90
2019-02-24T08:33:24.261Z,23.90
2019-02-24T08:35:54.802Z,23.90
2019-02-24T08:38:27.272Z,23.20
2019-02-24T08:40:58.086Z,22.60
2019-02-24T08:43:28.696Z,22.50
2019-02-24T08:45:59.631Z,22.40
2019-02-24T08:48:30.598Z,22.60
2019-02-24T08:51:02.165Z,22.10
2019-02-24T08:53:32.846Z,22.00
2019-02-24T08:56:03.577Z,21.60
2019-02-24T08:58:34.242Z,21.00
2019-02-24T09:01:04.893Z,20.50
2019-02-24T09:03:35.486Z,20.50
2019-02-24T09:06:06.251Z,20.40
2019-02-24T09:08:36.917Z,20.70
2019-02-24T09:11:07.633Z,20.00
2019-02-24T09:13:38.203Z,19.90
2019-02-24T09:16:08.870Z,19.80
2019-02-24T09:18:39.688Z,19.30
2019-02-24T09:21:10.375Z,18.80
2019-02-24T09:23:42.167Z,19.70
2019-02-24T09:26:12.796Z,20.60
2019-02-24T09:28:43.457Z,20.90
2019-02-24T09:31:14.060Z,21.60
2019-02-24T09:33:44.721Z,22.30
2019-02-24T09:36:15.269Z,22.70
2019-02-24T09:38:46.199Z,22.80
2019-02-24T09:41:16.800Z,23.00
2019-02-24T09:43:47.315Z,23.10
2019-02-24T09:46:18.014Z,23.40
2019-02-24T09:48:48.687Z,23.50
2019-02-24T09:51:19.296Z,23.40
2019-02-24T09:53:50.945Z,23.50
2019-02-24T09:56:21.571Z,23.60
2019-02-24T09:58:52.326Z,23.80
2019-02-24T10:01:22.943Z,24.00
2019-02-24T10:03:53.641Z,24.20
2019-02-24T10:06:24.281Z,24.10
2019-02-24T10:08:54.931Z,24.10
2019-02-24T10:11:25.720Z,24.00
2019-02-24T10:13:56.383Z,24.10
2019-02-24T10:16:27.041Z,24.30
2019-02-24T10:18:58.011Z,24.40
2019-02-24T10:21:28.617Z,25.00
2019-02-24T10:23:59.182Z,24.40
2019-02-24T10:26:29.729Z,24.50
2019-02-24T10:29:00.397Z,24.60
2019-02-24T10:31:31.007Z,24.70
2019-02-24T10:34:01.653Z,24.60
2019-02-24T10:36:32.246Z,24.40
2019-02-24T10:39:03.876Z,23.40
2019-02-24T10:41:36.156Z,22.50
2019-02-24T10:44:06.836Z,21.90
2019-02-24T10:46:37.410Z,21.80
2019-02-24T10:49:08.125Z,21.40
2019-02-24T10:51:38.768Z,21.90
2019-02-24T10:54:09.465Z,22.50
2019-02-24T10:56:40.740Z,23.00
2019-02-24T10:59:11.758Z,23.40
2019-02-24T11:01:43.507Z,23.70
2019-02-24T11:04:26.327Z,24.00
2019-02-24T11:06:57.313Z,24.00
2019-02-24T11:09:29.447Z,23.80
2019-02-24T11:12:00.021Z,23.90
2019-02-24T11:14:30.654Z,23.40
2019-02-24T11:17:01.227Z,23.60
2019-02-24T11:19:31.962Z,23.80
2019-02-24T11:22:03.011Z,23.90
2019-02-24T11:24:33.571Z,24.00
2019-02-24T11:27:04.142Z,24.20
2019-02-24T11:29:34.925Z,24.00
2019-02-24T11:32:05.558Z,25.00
2019-02-24T11:34:36.523Z,24.50
2019-02-24T11:37:07.159Z,24.40
2019-02-24T11:39:37.787Z,24.60
2019-02-24T11:42:08.374Z,24.40
2019-02-24T11:44:39.266Z,24.40
2019-02-24T11:47:09.958Z,24.30
2019-02-24T11:49:40.622Z,24.30
2019-02-24T11:52:11.163Z,24.40
2019-02-24T11:54:41.837Z,24.50
2019-02-24T11:57:12.457Z,24.30
2019-02-24T11:59:43.182Z,24.40
2019-02-24T12:02:13.901Z,24.30
2019-02-24T12:04:44.596Z,24.50
2019-02-24T12:07:15.291Z,24.50
2019-02-24T12:09:46.053Z,24.60
2019-02-24T12:12:17.090Z,24.40
2019-02-24T12:14:47.773Z,24.40
2019-02-24T12:17:18.447Z,24.50
2019-02-24T12:19:49.161Z,24.50
2019-02-24T12:22:20.136Z,24.60
2019-02-24T12:24:50.791Z,24.70
2019-02-24T12:27:21.437Z,24.80
2019-02-24T12:29:52.090Z,24.90
2019-02-24T12:32:22.763Z,24.70
2019-02-24T12:34:54.506Z,24.80
2019-02-24T12:37:25.167Z,24.80
2019-02-24T12:39:55.762Z,24.80
2019-02-24T12:42:26.455Z,24.80
2019-02-24T12:44:57.107Z,24.70
2019-02-24T12:47:27.843Z,24.80
2019-02-24T12:50:03.257Z,24.80
2019-02-24T12:52:31.504Z,24.80
2019-02-24T12:55:02.170Z,24.70
2019-02-24T12:57:32.840Z,24.50
2019-02-24T13:00:03.597Z,24.30
2019-02-24T13:02:34.467Z,24.40
2019-02-24T13:05:05.453Z,24.40
2019-02-24T13:07:36.101Z,24.30
2019-02-24T13:10:08.339Z,24.40
2019-02-24T13:12:39.003Z,24.30
2019-02-24T13:15:09.692Z,24.30
2019-02-24T13:17:40.554Z,24.30
2019-02-24T13:20:11.249Z,24.20
2019-02-24T13:22:42.070Z,24.20
2019-02-24T13:25:13.006Z,24.20
2019-02-24T13:27:43.677Z,24.30
2019-02-24T13:30:15.803Z,24.30
2019-02-24T13:32:46.542Z,24.20
2019-02-24T13:35:17.284Z,24.20
2019-02-24T13:37:47.959Z,24.80
2019-02-24T13:40:18.531Z,24.30
2019-02-24T13:42:49.209Z,24.40
2019-02-24T13:45:19.871Z,24.40
2019-02-24T13:47:50.514Z,24.40
2019-02-24T13:50:21.197Z,24.90
2019-02-24T13:52:51.941Z,24.40
2019-02-24T13:55:22.598Z,24.40
2019-02-24T13:57:53.267Z,24.50
2019-02-24T14:00:23.897Z,24.50
2019-02-24T14:02:54.598Z,24.50
2019-02-24T14:05:25.127Z,24.50
2019-02-24T14:07:55.720Z,24.50
2019-02-24T14:10:26.442Z,24.50
2019-02-24T14:12:58.950Z,24.50
2019-02-24T14:15:29.480Z,24.60
2019-02-24T14:18:00.517Z,24.60
2019-02-24T14:20:31.065Z,24.60
2019-02-24T14:23:02.421Z,24.60
2019-02-24T14:25:33.024Z,24.60
2019-02-24T14:28:03.572Z,24.80
2019-02-24T14:30:34.197Z,24.60
2019-02-24T14:33:05.466Z,24.70
2019-02-24T14:35:36.108Z,24.70
2019-02-24T14:38:06.833Z,24.70
2019-02-24T14:40:37.494Z,24.80
2019-02-24T14:43:08.091Z,25.10
2019-02-24T14:45:38.791Z,24.80
2019-02-24T14:48:09.409Z,24.80
2019-02-24T14:50:40.183Z,24.80
2019-02-24T14:53:10.987Z,24.90
2019-02-24T14:55:41.658Z,24.80
2019-02-24T14:58:12.319Z,24.80
2019-02-24T15:00:42.963Z,24.90
2019-02-24T15:03:14.799Z,24.80
2019-02-24T15:05:45.465Z,24.70
2019-02-24T15:08:16.129Z,24.70
2019-02-24T15:10:48.210Z,24.80
2019-02-24T15:13:31.283Z,24.70
2019-02-24T15:16:01.887Z,24.90
2019-02-24T15:18:32.697Z,25.30
2019-02-24T15:21:03.327Z,24.90
2019-02-24T15:23:33.979Z,24.90
2019-02-24T15:26:04.739Z,24.80
2019-02-24T15:28:35.394Z,24.80
2019-02-24T15:31:06.263Z,24.80
2019-02-24T15:33:36.882Z,24.70
2019-02-24T15:36:07.567Z,24.80
2019-02-24T15:38:38.352Z,24.80
2019-02-24T15:41:09.097Z,24.90
2019-02-24T15:43:39.898Z,24.90
2019-02-24T15:46:10.447Z,24.90
2019-02-24T15:48:41.115Z,24.90
2019-02-24T15:51:11.782Z,25.00
2019-02-24T15:53:42.497Z,25.00
2019-02-24T15:56:13.237Z,25.00
2019-02-24T15:58:44.012Z,25.00
2019-02-24T16:01:16.532Z,25.00
2019-02-24T16:03:47.375Z,25.10
2019-02-24T16:06:18.374Z,25.10
2019-02-24T16:08:49.353Z,25.10
2019-02-24T16:11:20.094Z,25.10
2019-02-24T16:13:50.882Z,25.10
2019-02-24T16:16:21.417Z,25.20
2019-02-24T16:18:52.101Z,25.20
2019-02-24T16:21:22.839Z,25.20
2019-02-24T16:23:53.456Z,25.20
2019-02-24T16:26:24.162Z,25.30
2019-02-24T16:28:54.803Z,25.30
2019-02-24T16:31:25.428Z,25.40
2019-02-24T16:33:56.087Z,25.40
2019-02-24T16:36:26.726Z,25.50
2019-02-24T16:38:58.255Z,25.50
2019-02-24T16:41:28.988Z,25.50
2019-02-24T16:44:00.097Z,25.50
2019-02-24T16:46:30.810Z,25.60
2019-02-24T16:49:05.030Z,25.60
2019-02-24T16:51:35.579Z,25.60
2019-02-24T16:54:06.674Z,25.60
2019-02-24T16:56:37.517Z,25.70
2019-02-24T16:59:08.319Z,25.80
2019-02-24T17:01:39.190Z,25.70
2019-02-24T17:04:10.472Z,25.80
2019-02-24T17:06:41.421Z,25.90
2019-02-24T17:09:12.135Z,25.90
2019-02-24T17:11:42.974Z,26.00
2019-02-24T17:14:13.691Z,26.00
2019-02-24T17:16:44.924Z,26.00
2019-02-24T17:19:15.734Z,26.10
2019-02-24T17:21:46.444Z,26.20
2019-02-24T17:24:17.539Z,26.20
2019-02-24T17:26:51.750Z,26.30
2019-02-24T17:29:22.336Z,26.30
2019-02-24T17:31:52.857Z,26.40
2019-02-24T17:34:23.558Z,26.50
2019-02-24T17:36:54.159Z,26.60
2019-02-24T17:39:24.837Z,26.70
2019-02-24T17:41:55.615Z,26.70
2019-02-24T17:44:26.345Z,26.70
2019-02-24T17:46:56.984Z,26.80
2019-02-24T17:49:27.626Z,26.80
2019-02-24T17:51:58.423Z,26.90
2019-02-24T17:54:29.133Z,27.10
2019-02-24T17:56:59.822Z,27.20
2019-02-24T17:59:30.740Z,27.20
2019-02-24T18:02:01.406Z,27.40
2019-02-24T18:04:32.118Z,27.40
2019-02-24T18:07:05.126Z,27.50
2019-02-24T18:09:37.666Z,27.60
2019-02-24T18:12:08.335Z,27.60
2019-02-24T18:14:40.233Z,27.70
2019-02-24T18:17:11.341Z,27.80
2019-02-24T18:19:42.033Z,27.80
2019-02-24T18:22:12.618Z,27.90
2019-02-24T18:24:43.225Z,27.90
2019-02-24T18:27:14.047Z,27.90
2019-02-24T18:29:44.797Z,28.00
2019-02-24T18:32:15.636Z,28.00
2019-02-24T18:34:46.290Z,28.10
2019-02-24T18:37:16.967Z,28.10
2019-02-24T18:39:48.841Z,28.20
2019-02-24T18:42:19.852Z,28.30
2019-02-24T18:44:51.607Z,28.30
2019-02-24T18:47:22.304Z,28.50
2019-02-24T18:49:52.882Z,28.50
2019-02-24T18:52:23.504Z,28.50
2019-02-24T18:54:54.115Z,28.60
2019-02-24T18:57:25.887Z,28.70
2019-02-24T18:59:56.517Z,28.70
2019-02-24T19:02:27.574Z,28.80
2019-02-24T19:04:58.211Z,28.80
2019-02-24T19:07:28.822Z,28.90
2019-02-24T19:09:59.371Z,28.90
2019-02-24T19:12:30.015Z,29.10
2019-02-24T19:15:00.770Z,29.10
2019-02-24T19:17:31.687Z,29.10
2019-02-24T19:20:02.383Z,29.20
2019-02-24T19:22:33.170Z,29.20
2019-02-24T19:25:03.979Z,29.30
2019-02-24T19:27:34.746Z,29.40
2019-02-24T19:30:06.980Z,29.40
2019-02-24T19:32:39.485Z,29.40
2019-02-24T19:35:10.723Z,29.60
2019-02-24T19:37:41.417Z,29.50
2019-02-24T19:40:13.848Z,29.50
2019-02-24T19:42:44.430Z,29.50
2019-02-24T19:45:16.506Z,29.50
2019-02-24T19:47:47.166Z,29.60
2019-02-24T19:50:18.024Z,29.60
2019-02-24T19:52:48.646Z,29.60
2019-02-24T19:55:19.630Z,29.60
2019-02-24T19:57:50.277Z,29.70
2019-02-24T20:00:21.648Z,29.80
2019-02-24T20:02:52.350Z,29.80
2019-02-24T20:05:23.355Z,29.90
2019-02-24T20:07:54.355Z,30.00
2019-02-24T20:10:25.748Z,29.90
2019-02-24T20:12:57.403Z,30.00
2019-02-24T20:15:29.157Z,30.00
2019-02-24T20:17:59.899Z,30.00
2019-02-24T20:20:31.001Z,30.10
2019-02-24T20:23:01.945Z,30.10
2019-02-24T20:25:32.831Z,30.20
2019-02-24T20:28:03.533Z,30.10
2019-02-24T20:30:34.512Z,30.30
2019-02-24T20:33:05.236Z,30.20
2019-02-24T20:35:35.959Z,30.20
2019-02-24T20:38:06.748Z,30.50
2019-02-24T20:40:37.305Z,30.40
2019-02-24T20:43:08.037Z,30.50
2019-02-24T20:45:38.806Z,30.60
2019-02-24T20:48:09.522Z,30.70
2019-02-24T20:50:40.198Z,30.70
2019-02-24T20:53:10.787Z,30.80
2019-02-24T20:55:41.476Z,30.90
2019-02-24T20:58:12.002Z,31.60
2019-02-24T21:00:43.864Z,31.30
2019-02-24T21:03:14.532Z,31.40
2019-02-24T21:05:45.215Z,31.40
2019-02-24T21:08:15.901Z,31.70
2019-02-24T21:10:46.611Z,31.90
2019-02-24T21:13:17.287Z,31.80
2019-02-24T21:15:47.921Z,32.00
2019-02-24T21:18:18.573Z,31.80
2019-02-24T21:20:49.592Z,31.80
2019-02-24T21:23:20.275Z,31.80
2019-02-24T21:25:50.853Z,31.90
2019-02-24T21:28:21.665Z,31.90
2019-02-24T21:30:52.277Z,31.90
2019-02-24T21:33:22.932Z,32.00
2019-02-24T21:35:54.632Z,32.10
2019-02-24T21:38:25.637Z,32.00
2019-02-24T21:40:56.389Z,32.10
2019-02-24T21:43:27.062Z,32.20
2019-02-24T21:45:57.763Z,32.30
2019-02-24T21:48:28.440Z,32.40
2019-02-24T21:50:59.106Z,32.30
2019-02-24T21:53:29.718Z,32.40
2019-02-24T21:56:00.519Z,33.20
2019-02-24T21:58:31.246Z,32.40
2019-02-24T22:01:02.760Z,32.50
2019-02-24T22:03:33.472Z,32.50
2019-02-24T22:06:04.145Z,32.50
2019-02-24T22:08:34.685Z,32.60
2019-02-24T22:11:05.343Z,32.70
2019-02-24T22:13:35.991Z,32.80
2019-02-24T22:16:07.081Z,32.80
2019-02-24T22:18:38.607Z,32.90
2019-02-24T22:21:09.297Z,33.00
2019-02-24T22:23:40.006Z,33.70
2019-02-24T22:26:10.858Z,33.20
2019-02-24T22:28:41.422Z,33.20
2019-02-24T22:31:12.060Z,33.30
2019-02-24T22:33:42.601Z,33.30
2019-02-24T22:36:13.150Z,33.40
2019-02-24T22:38:44.086Z,33.50
2019-02-24T22:41:14.707Z,33.70
2019-02-24T22:43:45.311Z,33.80
2019-02-24T22:46:17.731Z,33.90
2019-02-24T22:48:48.292Z,33.90
2019-02-24T22:51:19.975Z,33.90
2019-02-24T22:53:50.575Z,34.00
2019-02-24T22:56:21.312Z,34.10
2019-02-24T22:58:51.870Z,34.10
2019-02-24T23:01:41.001Z,34.20
2019-02-24T23:04:13.530Z,34.20
2019-02-24T23:06:44.268Z,34.30
2019-02-24T23:09:18.258Z,34.20
2019-02-24T23:11:49.023Z,34.30
2019-02-24T23:14:21.223Z,34.30
2019-02-24T23:16:51.768Z,34.40
2019-02-24T23:19:22.468Z,34.40
2019-02-24T23:22:13.432Z,34.40
2019-02-24T23:24:44.091Z,34.50
2019-02-24T23:27:15.159Z,34.50
2019-02-24T23:29:45.705Z,34.60
2019-02-24T23:32:16.277Z,34.70
2019-02-24T23:34:46.914Z,34.80
2019-02-24T23:37:17.643Z,34.80
2019-02-24T23:39:48.283Z,34.90
2019-02-24T23:42:18.955Z,34.90
2019-02-24T23:44:49.631Z,35.00
2019-02-24T23:47:20.281Z,35.10
2019-02-24T23:49:50.919Z,35.20
2019-02-24T23:52:21.605Z,35.20
2019-02-24T23:54:52.329Z,35.40
2019-02-24T23:57:23.019Z,35.50
2019-02-24T23:59:54.001Z,35.50
